sensor_id;sensor_type;location;lat;lon;timestamp;P1;durP1;ratioP1;P2;durP2;ratioP2
68247;SDS011;55064;49.636;12.164;2022-09-09T00:03:57;6.75;;;2.30;;
68247;SDS011;55064;49.636;12.164;2022-09-09T00:06:28;4.43;;;1.95;;
68247;SDS011;55064;49.636;12.164;2022-09-09T00:09:13;4.80;;;1.80;;
68247;SDS011;55064;49.636;12.164;2022-09-09T00:11:54;5.90;;;2.20;;
68247;SDS011;55064;49.636;12.164;2022-09-09T00:17:09;7.32;;;2.28;;
68247;SDS011;55064;49.636;12.164;2022-09-09T00:19:51;5.60;;;2.10;;
68247;SDS011;55064;49.636;12.164;2022-09-09T00:22:28;6.90;;;1.90;;
68247;SDS011;55064;49.636;12.164;2022-09-09T00:24:58;4.32;;;1.63;;
68247;SDS011;55064;49.636;12.164;2022-09-09T00:27:46;6.50;;;2.20;;
68247;SDS011;55064;49.636;12.164;2022-09-09T00:32:58;5.80;;;2.30;;
68247;SDS011;55064;49.636;12.164;2022-09-09T00:35:36;7.50;;;2.50;;
68247;SDS011;55064;49.636;12.164;2022-09-09T00:38:15;6.30;;;2.10;;
68247;SDS011;55064;49.636;12.164;2022-09-09T00:43:39;4.55;;;1.60;;
68247;SDS011;55064;49.636;12.164;2022-09-09T00:54:25;5.25;;;1.77;;
68247;SDS011;55064;49.636;12.164;2022-09-09T01:02:01;5.43;;;2.30;;
68247;SDS011;55064;49.636;12.164;2022-09-09T01:04:32;6.05;;;2.10;;
68247;SDS011;55064;49.636;12.164;2022-09-09T01:07:04;5.22;;;2.10;;
68247;SDS011;55064;49.636;12.164;2022-09-09T01:12:25;5.65;;;2.50;;
68247;SDS011;55064;49.636;12.164;2022-09-09T01:15:11;5.13;;;2.10;;
68247;SDS011;55064;49.636;12.164;2022-09-09T01:27:59;6.35;;;2.42;;
68247;SDS011;55064;49.636;12.164;2022-09-09T01:30:30;5.90;;;2.25;;
68247;SDS011;55064;49.636;12.164;2022-09-09T01:32:58;5.00;;;2.37;;
68247;SDS011;55064;49.636;12.164;2022-09-09T01:35:42;5.53;;;2.25;;
68247;SDS011;55064;49.636;12.164;2022-09-09T01:38:12;5.65;;;1.88;;
68247;SDS011;55064;49.636;12.164;2022-09-09T01:40:39;6.28;;;1.92;;
68247;SDS011;55064;49.636;12.164;2022-09-09T01:43:04;5.20;;;2.10;;
68247;SDS011;55064;49.636;12.164;2022-09-09T01:45:34;5.65;;;2.25;;
68247;SDS011;55064;49.636;12.164;2022-09-09T01:47:59;6.35;;;2.00;;
68247;SDS011;55064;49.636;12.164;2022-09-09T01:50:25;5.30;;;2.50;;
68247;SDS011;55064;49.636;12.164;2022-09-09T01:52:52;8.27;;;2.70;;
68247;SDS011;55064;49.636;12.164;2022-09-09T01:55:23;6.03;;;2.65;;
68247;SDS011;55064;49.636;12.164;2022-09-09T01:58:12;8.57;;;3.00;;
68247;SDS011;55064;49.636;12.164;2022-09-09T02:00:56;7.18;;;2.72;;
68247;SDS011;55064;49.636;12.164;2022-09-09T02:03:33;8.32;;;3.00;;
68247;SDS011;55064;49.636;12.164;2022-09-09T02:08:50;6.75;;;3.10;;
68247;SDS011;55064;49.636;12.164;2022-09-09T02:11:23;7.77;;;2.90;;
68247;SDS011;55064;49.636;12.164;2022-09-09T02:14:00;6.93;;;2.90;;
68247;SDS011;55064;49.636;12.164;2022-09-09T02:21:32;5.65;;;2.55;;
68247;SDS011;55064;49.636;12.164;2022-09-09T02:24:00;7.50;;;2.60;;
68247;SDS011;55064;49.636;12.164;2022-09-09T02:26:38;5.72;;;2.85;;
68247;SDS011;55064;49.636;12.164;2022-09-09T02:29:16;6.13;;;2.80;;
68247;SDS011;55064;49.636;12.164;2022-09-09T02:31:49;5.68;;;2.53;;
68247;SDS011;55064;49.636;12.164;2022-09-09T02:34:15;7.57;;;2.65;;
68247;SDS011;55064;49.636;12.164;2022-09-09T02:36:45;8.67;;;3.30;;
68247;SDS011;55064;49.636;12.164;2022-09-09T02:39:11;8.10;;;3.58;;
68247;SDS011;55064;49.636;12.164;2022-09-09T02:41:39;6.15;;;3.28;;
68247;SDS011;55064;49.636;12.164;2022-09-09T02:44:13;8.63;;;3.22;;
68247;SDS011;55064;49.636;12.164;2022-09-09T02:47:05;6.90;;;3.00;;
68247;SDS011;55064;49.636;12.164;2022-09-09T02:52:45;8.32;;;3.60;;
68247;SDS011;55064;49.636;12.164;2022-09-09T02:55:10;6.20;;;3.10;;
68247;SDS011;55064;49.636;12.164;2022-09-09T02:57:43;7.65;;;3.42;;
68247;SDS011;55064;49.636;12.164;2022-09-09T03:00:12;7.10;;;3.07;;
68247;SDS011;55064;49.636;12.164;2022-09-09T03:02:40;7.28;;;3.58;;
68247;SDS011;55064;49.636;12.164;2022-09-09T03:05:09;7.13;;;3.50;;
68247;SDS011;55064;49.636;12.164;2022-09-09T03:07:38;6.80;;;3.63;;
68247;SDS011;55064;49.636;12.164;2022-09-09T03:10:08;7.60;;;3.85;;
68247;SDS011;55064;49.636;12.164;2022-09-09T03:12:33;8.77;;;3.97;;
68247;SDS011;55064;49.636;12.164;2022-09-09T03:15:04;8.05;;;3.53;;
68247;SDS011;55064;49.636;12.164;2022-09-09T03:17:30;6.60;;;3.15;;
68247;SDS011;55064;49.636;12.164;2022-09-09T03:19:59;7.73;;;3.13;;
68247;SDS011;55064;49.636;12.164;2022-09-09T03:22:27;8.40;;;3.20;;
68247;SDS011;55064;49.636;12.164;2022-09-09T03:24:57;8.10;;;3.38;;
68247;SDS011;55064;49.636;12.164;2022-09-09T03:27:28;6.68;;;3.42;;
68247;SDS011;55064;49.636;12.164;2022-09-09T03:29:57;6.30;;;3.30;;
68247;SDS011;55064;49.636;12.164;2022-09-09T03:32:25;8.50;;;3.17;;
68247;SDS011;55064;49.636;12.164;2022-09-09T03:34:53;7.50;;;3.08;;
68247;SDS011;55064;49.636;12.164;2022-09-09T03:37:19;5.90;;;2.87;;
68247;SDS011;55064;49.636;12.164;2022-09-09T03:39:45;6.35;;;2.72;;
68247;SDS011;55064;49.636;12.164;2022-09-09T03:42:14;7.20;;;3.15;;
68247;SDS011;55064;49.636;12.164;2022-09-09T03:44:46;7.83;;;3.33;;
68247;SDS011;55064;49.636;12.164;2022-09-09T03:47:25;7.18;;;3.63;;
68247;SDS011;55064;49.636;12.164;2022-09-09T03:49:53;6.60;;;3.50;;
68247;SDS011;55064;49.636;12.164;2022-09-09T03:52:21;9.27;;;3.92;;
68247;SDS011;55064;49.636;12.164;2022-09-09T03:54:51;7.30;;;3.70;;
68247;SDS011;55064;49.636;12.164;2022-09-09T03:57:19;7.20;;;3.90;;
68247;SDS011;55064;49.636;12.164;2022-09-09T03:59:45;6.68;;;3.58;;
68247;SDS011;55064;49.636;12.164;2022-09-09T04:02:10;6.90;;;3.40;;
68247;SDS011;55064;49.636;12.164;2022-09-09T04:04:36;6.57;;;3.30;;
68247;SDS011;55064;49.636;12.164;2022-09-09T04:07:06;6.55;;;3.42;;
68247;SDS011;55064;49.636;12.164;2022-09-09T04:09:32;7.53;;;3.47;;
68247;SDS011;55064;49.636;12.164;2022-09-09T04:11:59;7.25;;;3.60;;
68247;SDS011;55064;49.636;12.164;2022-09-09T04:14:25;7.27;;;3.40;;
68247;SDS011;55064;49.636;12.164;2022-09-09T04:16:53;7.32;;;3.97;;
68247;SDS011;55064;49.636;12.164;2022-09-09T04:19:19;7.97;;;3.80;;
68247;SDS011;55064;49.636;12.164;2022-09-09T04:21:46;9.07;;;4.20;;
68247;SDS011;55064;49.636;12.164;2022-09-09T04:24:15;8.85;;;4.88;;
68247;SDS011;55064;49.636;12.164;2022-09-09T04:26:42;8.63;;;4.07;;
68247;SDS011;55064;49.636;12.164;2022-09-09T04:29:08;6.90;;;3.63;;
68247;SDS011;55064;49.636;12.164;2022-09-09T04:31:36;7.17;;;3.80;;
68247;SDS011;55064;49.636;12.164;2022-09-09T04:34:09;6.85;;;3.70;;
68247;SDS011;55064;49.636;12.164;2022-09-09T04:36:36;7.22;;;3.90;;
68247;SDS011;55064;49.636;12.164;2022-09-09T04:39:07;7.43;;;3.75;;
68247;SDS011;55064;49.636;12.164;2022-09-09T04:41:33;7.20;;;3.63;;
68247;SDS011;55064;49.636;12.164;2022-09-09T04:44:06;7.35;;;3.75;;
68247;SDS011;55064;49.636;12.164;2022-09-09T04:46:31;7.40;;;3.80;;
68247;SDS011;55064;49.636;12.164;2022-09-09T04:48:59;6.93;;;3.50;;
68247;SDS011;55064;49.636;12.164;2022-09-09T04:51:25;9.30;;;3.90;;
68247;SDS011;55064;49.636;12.164;2022-09-09T04:53:50;7.55;;;4.07;;
68247;SDS011;55064;49.636;12.164;2022-09-09T04:56:16;7.43;;;4.27;;
68247;SDS011;55064;49.636;12.164;2022-09-09T04:58:44;8.27;;;4.32;;
68247;SDS011;55064;49.636;12.164;2022-09-09T05:03:39;10.23;;;4.75;;
68247;SDS011;55064;49.636;12.164;2022-09-09T05:06:05;8.97;;;4.20;;
68247;SDS011;55064;49.636;12.164;2022-09-09T05:08:40;10.70;;;5.18;;
68247;SDS011;55064;49.636;12.164;2022-09-09T05:13:43;10.68;;;5.80;;
68247;SDS011;55064;49.636;12.164;2022-09-09T05:16:09;11.10;;;5.30;;
68247;SDS011;55064;49.636;12.164;2022-09-09T05:18:36;8.48;;;4.65;;
68247;SDS011;55064;49.636;12.164;2022-09-09T05:21:04;11.63;;;6.05;;
68247;SDS011;55064;49.636;12.164;2022-09-09T05:23:34;9.88;;;5.88;;
68247;SDS011;55064;49.636;12.164;2022-09-09T05:26:03;11.23;;;6.10;;
68247;SDS011;55064;49.636;12.164;2022-09-09T05:28:29;11.35;;;5.75;;
68247;SDS011;55064;49.636;12.164;2022-09-09T05:30:59;10.68;;;5.82;;
68247;SDS011;55064;49.636;12.164;2022-09-09T05:33:28;9.43;;;5.13;;
68247;SDS011;55064;49.636;12.164;2022-09-09T05:36:00;9.98;;;5.40;;
68247;SDS011;55064;49.636;12.164;2022-09-09T05:38:30;11.37;;;5.57;;
68247;SDS011;55064;49.636;12.164;2022-09-09T05:40:58;10.02;;;5.05;;
68247;SDS011;55064;49.636;12.164;2022-09-09T05:43:27;10.15;;;5.40;;
68247;SDS011;55064;49.636;12.164;2022-09-09T05:48:52;8.65;;;5.00;;
68247;SDS011;55064;49.636;12.164;2022-09-09T05:51:19;10.37;;;4.87;;
68247;SDS011;55064;49.636;12.164;2022-09-09T05:53:53;9.52;;;5.25;;
68247;SDS011;55064;49.636;12.164;2022-09-09T05:56:23;10.98;;;5.18;;
68247;SDS011;55064;49.636;12.164;2022-09-09T05:58:53;10.95;;;5.70;;
68247;SDS011;55064;49.636;12.164;2022-09-09T06:01:21;9.55;;;5.03;;
68247;SDS011;55064;49.636;12.164;2022-09-09T06:03:48;8.83;;;4.70;;
68247;SDS011;55064;49.636;12.164;2022-09-09T06:06:18;10.57;;;4.60;;
68247;SDS011;55064;49.636;12.164;2022-09-09T06:08:48;11.23;;;4.70;;
68247;SDS011;55064;49.636;12.164;2022-09-09T06:11:16;11.30;;;5.10;;
68247;SDS011;55064;49.636;12.164;2022-09-09T06:13:49;10.00;;;5.50;;
68247;SDS011;55064;49.636;12.164;2022-09-09T06:16:18;13.03;;;5.50;;
68247;SDS011;55064;49.636;12.164;2022-09-09T06:18:51;11.23;;;5.15;;
68247;SDS011;55064;49.636;12.164;2022-09-09T06:21:29;9.23;;;5.28;;
68247;SDS011;55064;49.636;12.164;2022-09-09T06:24:02;9.90;;;6.30;;
68247;SDS011;55064;49.636;12.164;2022-09-09T06:26:31;11.75;;;5.97;;
68247;SDS011;55064;49.636;12.164;2022-09-09T06:28:59;9.10;;;5.30;;
68247;SDS011;55064;49.636;12.164;2022-09-09T06:31:29;10.07;;;5.63;;
68247;SDS011;55064;49.636;12.164;2022-09-09T06:33:56;10.70;;;5.28;;
68247;SDS011;55064;49.636;12.164;2022-09-09T06:36:26;9.85;;;5.20;;
68247;SDS011;55064;49.636;12.164;2022-09-09T06:38:58;9.77;;;4.88;;
68247;SDS011;55064;49.636;12.164;2022-09-09T06:41:29;11.00;;;5.67;;
68247;SDS011;55064;49.636;12.164;2022-09-09T06:43:56;10.18;;;5.35;;
68247;SDS011;55064;49.636;12.164;2022-09-09T06:46:23;10.27;;;4.57;;
68247;SDS011;55064;49.636;12.164;2022-09-09T06:48:57;9.55;;;4.50;;
68247;SDS011;55064;49.636;12.164;2022-09-09T06:51:27;9.60;;;4.65;;
68247;SDS011;55064;49.636;12.164;2022-09-09T06:53:58;8.90;;;5.00;;
68247;SDS011;55064;49.636;12.164;2022-09-09T06:56:28;8.52;;;4.60;;
68247;SDS011;55064;49.636;12.164;2022-09-09T06:58:58;9.70;;;4.78;;
68247;SDS011;55064;49.636;12.164;2022-09-09T07:01:34;9.23;;;5.07;;
68247;SDS011;55064;49.636;12.164;2022-09-09T07:04:04;9.30;;;5.15;;
68247;SDS011;55064;49.636;12.164;2022-09-09T07:06:33;8.67;;;4.73;;
68247;SDS011;55064;49.636;12.164;2022-09-09T07:09:00;8.93;;;4.68;;
68247;SDS011;55064;49.636;12.164;2022-09-09T07:11:34;10.18;;;5.30;;
68247;SDS011;55064;49.636;12.164;2022-09-09T07:14:08;9.20;;;4.95;;
68247;SDS011;55064;49.636;12.164;2022-09-09T07:16:34;8.57;;;4.45;;
68247;SDS011;55064;49.636;12.164;2022-09-09T07:19:02;9.03;;;5.03;;
68247;SDS011;55064;49.636;12.164;2022-09-09T07:21:31;11.65;;;6.13;;
68247;SDS011;55064;49.636;12.164;2022-09-09T07:23:57;10.63;;;5.00;;
68247;SDS011;55064;49.636;12.164;2022-09-09T07:26:26;10.27;;;5.55;;
68247;SDS011;55064;49.636;12.164;2022-09-09T07:28:57;9.25;;;5.43;;
68247;SDS011;55064;49.636;12.164;2022-09-09T07:31:26;10.60;;;5.83;;
68247;SDS011;55064;49.636;12.164;2022-09-09T07:33:54;10.43;;;6.07;;
68247;SDS011;55064;49.636;12.164;2022-09-09T07:38:48;11.60;;;6.43;;
68247;SDS011;55064;49.636;12.164;2022-09-09T07:41:17;12.35;;;7.20;;
68247;SDS011;55064;49.636;12.164;2022-09-09T07:43:45;12.50;;;7.17;;
68247;SDS011;55064;49.636;12.164;2022-09-09T07:46:15;11.25;;;7.03;;
68247;SDS011;55064;49.636;12.164;2022-09-09T07:48:45;13.18;;;7.85;;
68247;SDS011;55064;49.636;12.164;2022-09-09T07:51:18;12.55;;;7.95;;
68247;SDS011;55064;49.636;12.164;2022-09-09T07:53:47;15.85;;;8.05;;
68247;SDS011;55064;49.636;12.164;2022-09-09T07:56:14;12.90;;;8.47;;
68247;SDS011;55064;49.636;12.164;2022-09-09T07:58:42;12.80;;;8.25;;
68247;SDS011;55064;49.636;12.164;2022-09-09T08:01:15;12.90;;;8.50;;
68247;SDS011;55064;49.636;12.164;2022-09-09T08:03:53;12.63;;;8.52;;
68247;SDS011;55064;49.636;12.164;2022-09-09T08:06:24;14.32;;;9.07;;
68247;SDS011;55064;49.636;12.164;2022-09-09T08:08:51;13.87;;;8.93;;
68247;SDS011;55064;49.636;12.164;2022-09-09T08:11:18;13.65;;;8.80;;
68247;SDS011;55064;49.636;12.164;2022-09-09T08:13:43;13.88;;;9.07;;
68247;SDS011;55064;49.636;12.164;2022-09-09T08:16:20;14.88;;;9.65;;
68247;SDS011;55064;49.636;12.164;2022-09-09T08:18:51;15.63;;;9.23;;
68247;SDS011;55064;49.636;12.164;2022-09-09T08:21:20;15.98;;;9.50;;
68247;SDS011;55064;49.636;12.164;2022-09-09T08:23:50;15.10;;;9.68;;
68247;SDS011;55064;49.636;12.164;2022-09-09T08:26:20;17.77;;;10.52;;
68247;SDS011;55064;49.636;12.164;2022-09-09T08:28:50;21.00;;;11.55;;
68247;SDS011;55064;49.636;12.164;2022-09-09T08:33:46;18.40;;;11.43;;
68247;SDS011;55064;49.636;12.164;2022-09-09T08:36:15;20.17;;;11.90;;
68247;SDS011;55064;49.636;12.164;2022-09-09T08:38:47;21.65;;;12.27;;
68247;SDS011;55064;49.636;12.164;2022-09-09T08:44:23;19.93;;;12.17;;
68247;SDS011;55064;49.636;12.164;2022-09-09T08:58:23;19.30;;;10.97;;
68247;SDS011;55064;49.636;12.164;2022-09-09T09:11:54;20.47;;;11.07;;
68247;SDS011;55064;49.636;12.164;2022-09-09T09:14:28;16.77;;;10.48;;
68247;SDS011;55064;49.636;12.164;2022-09-09T09:16:59;17.83;;;11.52;;
68247;SDS011;55064;49.636;12.164;2022-09-09T09:19:27;16.40;;;10.23;;
68247;SDS011;55064;49.636;12.164;2022-09-09T09:24:56;18.37;;;10.90;;
68247;SDS011;55064;49.636;12.164;2022-09-09T09:27:33;17.30;;;10.85;;
68247;SDS011;55064;49.636;12.164;2022-09-09T09:30:01;14.23;;;9.68;;
68247;SDS011;55064;49.636;12.164;2022-09-09T09:32:37;12.93;;;8.02;;
68247;SDS011;55064;49.636;12.164;2022-09-09T09:35:10;15.75;;;9.30;;
68247;SDS011;55064;49.636;12.164;2022-09-09T09:37:40;13.80;;;8.27;;
68247;SDS011;55064;49.636;12.164;2022-09-09T09:40:10;13.20;;;8.82;;
68247;SDS011;55064;49.636;12.164;2022-09-09T09:45:42;9.52;;;6.53;;
68247;SDS011;55064;49.636;12.164;2022-09-09T09:48:15;10.85;;;6.60;;
68247;SDS011;55064;49.636;12.164;2022-09-09T09:53:31;11.65;;;7.32;;
68247;SDS011;55064;49.636;12.164;2022-09-09T09:56:02;11.38;;;7.45;;
68247;SDS011;55064;49.636;12.164;2022-09-09T09:58:31;10.88;;;6.63;;
68247;SDS011;55064;49.636;12.164;2022-09-09T10:01:18;11.63;;;7.15;;
68247;SDS011;55064;49.636;12.164;2022-09-09T10:03:50;10.17;;;6.60;;
68247;SDS011;55064;49.636;12.164;2022-09-09T10:06:28;12.80;;;6.07;;
68247;SDS011;55064;49.636;12.164;2022-09-09T10:09:02;9.80;;;5.55;;
68247;SDS011;55064;49.636;12.164;2022-09-09T10:22:01;8.73;;;4.05;;
68247;SDS011;55064;49.636;12.164;2022-09-09T10:40:23;6.55;;;3.70;;
68247;SDS011;55064;49.636;12.164;2022-09-09T10:45:58;7.50;;;3.67;;
68247;SDS011;55064;49.636;12.164;2022-09-09T10:51:23;7.43;;;4.10;;
68247;SDS011;55064;49.636;12.164;2022-09-09T10:54:04;10.55;;;4.55;;
68247;SDS011;55064;49.636;12.164;2022-09-09T10:56:37;7.75;;;3.55;;
68247;SDS011;55064;49.636;12.164;2022-09-09T10:59:09;8.23;;;3.25;;
68247;SDS011;55064;49.636;12.164;2022-09-09T11:01:59;6.10;;;3.20;;
68247;SDS011;55064;49.636;12.164;2022-09-09T11:04:33;6.68;;;3.10;;
68247;SDS011;55064;49.636;12.164;2022-09-09T11:07:09;6.30;;;3.00;;
68247;SDS011;55064;49.636;12.164;2022-09-09T11:09:42;7.43;;;2.80;;
68247;SDS011;55064;49.636;12.164;2022-09-09T11:12:15;6.00;;;2.70;;
68247;SDS011;55064;49.636;12.164;2022-09-09T11:17:26;6.35;;;2.35;;
68247;SDS011;55064;49.636;12.164;2022-09-09T11:20:21;6.50;;;1.95;;
68247;SDS011;55064;49.636;12.164;2022-09-09T11:25:33;4.88;;;1.90;;
68247;SDS011;55064;49.636;12.164;2022-09-09T11:41:49;5.13;;;1.73;;
68247;SDS011;55064;49.636;12.164;2022-09-09T11:44:18;4.43;;;1.40;;
68247;SDS011;55064;49.636;12.164;2022-09-09T11:46:54;4.05;;;1.42;;
68247;SDS011;55064;49.636;12.164;2022-09-09T11:49:39;5.30;;;1.53;;
68247;SDS011;55064;49.636;12.164;2022-09-09T11:52:12;3.97;;;1.30;;
68247;SDS011;55064;49.636;12.164;2022-09-09T11:54:50;5.75;;;1.33;;
68247;SDS011;55064;49.636;12.164;2022-09-09T11:57:30;5.43;;;1.20;;
68247;SDS011;55064;49.636;12.164;2022-09-09T12:00:02;4.17;;;1.17;;
68247;SDS011;55064;49.636;12.164;2022-09-09T12:02:29;3.70;;;1.00;;
68247;SDS011;55064;49.636;12.164;2022-09-09T12:07:36;3.92;;;1.30;;
68247;SDS011;55064;49.636;12.164;2022-09-09T12:10:32;6.22;;;1.50;;
68247;SDS011;55064;49.636;12.164;2022-09-09T12:13:20;5.80;;;1.40;;
68247;SDS011;55064;49.636;12.164;2022-09-09T12:15:53;5.40;;;1.30;;
68247;SDS011;55064;49.636;12.164;2022-09-09T12:23:47;3.63;;;1.17;;
68247;SDS011;55064;49.636;12.164;2022-09-09T12:26:22;3.63;;;1.30;;
68247;SDS011;55064;49.636;12.164;2022-09-09T12:29:20;4.57;;;1.15;;
68247;SDS011;55064;49.636;12.164;2022-09-09T12:34:34;4.35;;;1.27;;
68247;SDS011;55064;49.636;12.164;2022-09-09T12:39:57;5.57;;;1.10;;
68247;SDS011;55064;49.636;12.164;2022-09-09T12:42:25;4.25;;;1.20;;
68247;SDS011;55064;49.636;12.164;2022-09-09T12:44:53;4.25;;;1.13;;
68247;SDS011;55064;49.636;12.164;2022-09-09T12:47:47;6.10;;;1.00;;
68247;SDS011;55064;49.636;12.164;2022-09-09T12:50:17;3.28;;;0.93;;
68247;SDS011;55064;49.636;12.164;2022-09-09T12:52:46;3.90;;;0.90;;
68247;SDS011;55064;49.636;12.164;2022-09-09T12:55:16;2.78;;;0.70;;
68247;SDS011;55064;49.636;12.164;2022-09-09T12:57:44;2.70;;;0.80;;
68247;SDS011;55064;49.636;12.164;2022-09-09T13:02:46;4.03;;;0.80;;
68247;SDS011;55064;49.636;12.164;2022-09-09T13:05:18;4.83;;;0.90;;
68247;SDS011;55064;49.636;12.164;2022-09-09T13:07:50;2.90;;;1.00;;
68247;SDS011;55064;49.636;12.164;2022-09-09T13:10:23;3.53;;;0.90;;
68247;SDS011;55064;49.636;12.164;2022-09-09T13:12:51;2.45;;;0.70;;
68247;SDS011;55064;49.636;12.164;2022-09-09T13:15:21;3.27;;;0.93;;
68247;SDS011;55064;49.636;12.164;2022-09-09T13:17:58;3.35;;;0.80;;
68247;SDS011;55064;49.636;12.164;2022-09-09T13:20:28;3.05;;;0.60;;
68247;SDS011;55064;49.636;12.164;2022-09-09T13:22:59;2.55;;;0.80;;
68247;SDS011;55064;49.636;12.164;2022-09-09T13:25:25;4.87;;;0.90;;
68247;SDS011;55064;49.636;12.164;2022-09-09T13:27:58;2.90;;;0.70;;
68247;SDS011;55064;49.636;12.164;2022-09-09T13:38:15;2.73;;;0.80;;
68247;SDS011;55064;49.636;12.164;2022-09-09T13:40:51;4.68;;;1.20;;
68247;SDS011;55064;49.636;12.164;2022-09-09T13:43:25;5.83;;;0.90;;
68247;SDS011;55064;49.636;12.164;2022-09-09T13:45:52;3.22;;;0.90;;
68247;SDS011;55064;49.636;12.164;2022-09-09T13:48:19;3.65;;;0.80;;
68247;SDS011;55064;49.636;12.164;2022-09-09T13:50:56;3.38;;;0.80;;
68247;SDS011;55064;49.636;12.164;2022-09-09T13:53:27;2.45;;;0.80;;
68247;SDS011;55064;49.636;12.164;2022-09-09T13:55:55;4.03;;;0.80;;
68247;SDS011;55064;49.636;12.164;2022-09-09T13:58:21;4.22;;;0.88;;
68247;SDS011;55064;49.636;12.164;2022-09-09T14:00:51;2.63;;;0.70;;
68247;SDS011;55064;49.636;12.164;2022-09-09T14:03:20;5.03;;;0.70;;
68247;SDS011;55064;49.636;12.164;2022-09-09T14:05:48;4.20;;;0.90;;
68247;SDS011;55064;49.636;12.164;2022-09-09T14:08:21;3.60;;;0.70;;
68247;SDS011;55064;49.636;12.164;2022-09-09T14:10:53;3.20;;;0.70;;
68247;SDS011;55064;49.636;12.164;2022-09-09T14:13:21;2.17;;;0.50;;
68247;SDS011;55064;49.636;12.164;2022-09-09T14:15:47;2.43;;;0.60;;
68247;SDS011;55064;49.636;12.164;2022-09-09T14:18:13;3.92;;;0.73;;
68247;SDS011;55064;49.636;12.164;2022-09-09T14:20:41;10.05;;;1.20;;
68247;SDS011;55064;49.636;12.164;2022-09-09T14:23:08;8.38;;;1.40;;
68247;SDS011;55064;49.636;12.164;2022-09-09T14:25:43;8.50;;;1.10;;
68247;SDS011;55064;49.636;12.164;2022-09-09T14:28:11;5.65;;;1.17;;
68247;SDS011;55064;49.636;12.164;2022-09-09T14:30:38;5.50;;;1.10;;
68247;SDS011;55064;49.636;12.164;2022-09-09T14:33:08;4.95;;;1.00;;
68247;SDS011;55064;49.636;12.164;2022-09-09T14:35:35;4.85;;;0.90;;
68247;SDS011;55064;49.636;12.164;2022-09-09T14:38:01;6.03;;;1.10;;
68247;SDS011;55064;49.636;12.164;2022-09-09T14:40:31;6.57;;;1.00;;
68247;SDS011;55064;49.636;12.164;2022-09-09T14:42:58;6.97;;;1.00;;
68247;SDS011;55064;49.636;12.164;2022-09-09T14:45:24;6.20;;;1.10;;
68247;SDS011;55064;49.636;12.164;2022-09-09T14:47:51;5.50;;;0.87;;
68247;SDS011;55064;49.636;12.164;2022-09-09T14:50:22;5.43;;;0.90;;
68247;SDS011;55064;49.636;12.164;2022-09-09T14:52:48;7.43;;;1.48;;
68247;SDS011;55064;49.636;12.164;2022-09-09T14:55:16;4.72;;;0.95;;
68247;SDS011;55064;49.636;12.164;2022-09-09T14:57:44;8.63;;;1.02;;
68247;SDS011;55064;49.636;12.164;2022-09-09T15:00:12;4.43;;;0.90;;
68247;SDS011;55064;49.636;12.164;2022-09-09T15:02:41;5.18;;;1.00;;
68247;SDS011;55064;49.636;12.164;2022-09-09T15:05:06;6.97;;;1.10;;
68247;SDS011;55064;49.636;12.164;2022-09-09T15:07:37;4.10;;;1.00;;
68247;SDS011;55064;49.636;12.164;2022-09-09T15:10:05;6.63;;;1.00;;
68247;SDS011;55064;49.636;12.164;2022-09-09T15:12:31;4.75;;;0.80;;
68247;SDS011;55064;49.636;12.164;2022-09-09T15:14:58;4.30;;;0.85;;
68247;SDS011;55064;49.636;12.164;2022-09-09T15:17:23;4.13;;;0.90;;
68247;SDS011;55064;49.636;12.164;2022-09-09T15:19:50;6.25;;;0.80;;
68247;SDS011;55064;49.636;12.164;2022-09-09T15:22:16;5.30;;;1.00;;
68247;SDS011;55064;49.636;12.164;2022-09-09T15:24:41;3.50;;;0.87;;
68247;SDS011;55064;49.636;12.164;2022-09-09T15:27:06;4.10;;;0.80;;
68247;SDS011;55064;49.636;12.164;2022-09-09T15:29:32;4.20;;;0.87;;
68247;SDS011;55064;49.636;12.164;2022-09-09T15:32:00;5.43;;;0.90;;
68247;SDS011;55064;49.636;12.164;2022-09-09T15:34:30;4.35;;;0.85;;
68247;SDS011;55064;49.636;12.164;2022-09-09T15:36:58;3.60;;;0.80;;
68247;SDS011;55064;49.636;12.164;2022-09-09T15:39:25;5.80;;;0.95;;
68247;SDS011;55064;49.636;12.164;2022-09-09T15:41:50;5.00;;;0.80;;
68247;SDS011;55064;49.636;12.164;2022-09-09T15:44:16;3.78;;;0.90;;
68247;SDS011;55064;49.636;12.164;2022-09-09T15:46:45;5.88;;;1.08;;
68247;SDS011;55064;49.636;12.164;2022-09-09T15:49:14;4.57;;;1.00;;
68247;SDS011;55064;49.636;12.164;2022-09-09T15:51:50;5.57;;;1.30;;
68247;SDS011;55064;49.636;12.164;2022-09-09T15:54:17;5.20;;;0.90;;
68247;SDS011;55064;49.636;12.164;2022-09-09T15:56:45;4.97;;;1.00;;
68247;SDS011;55064;49.636;12.164;2022-09-09T15:59:13;3.63;;;1.02;;
68247;SDS011;55064;49.636;12.164;2022-09-09T16:01:39;3.17;;;0.70;;
68247;SDS011;55064;49.636;12.164;2022-09-09T16:04:08;3.88;;;0.90;;
68247;SDS011;55064;49.636;12.164;2022-09-09T16:06:34;5.90;;;1.20;;
68247;SDS011;55064;49.636;12.164;2022-09-09T16:09:03;7.87;;;1.40;;
68247;SDS011;55064;49.636;12.164;2022-09-09T16:11:34;5.28;;;1.27;;
68247;SDS011;55064;49.636;12.164;2022-09-09T16:14:03;5.82;;;1.50;;
68247;SDS011;55064;49.636;12.164;2022-09-09T16:16:33;6.07;;;1.30;;
68247;SDS011;55064;49.636;12.164;2022-09-09T16:19:01;6.68;;;1.30;;
68247;SDS011;55064;49.636;12.164;2022-09-09T16:21:30;5.28;;;1.20;;
68247;SDS011;55064;49.636;12.164;2022-09-09T16:23:59;6.32;;;1.20;;
68247;SDS011;55064;49.636;12.164;2022-09-09T16:26:26;7.57;;;1.25;;
68247;SDS011;55064;49.636;12.164;2022-09-09T16:28:57;4.93;;;1.40;;
68247;SDS011;55064;49.636;12.164;2022-09-09T16:31:24;6.03;;;1.40;;
68247;SDS011;55064;49.636;12.164;2022-09-09T16:33:50;6.72;;;1.50;;
68247;SDS011;55064;49.636;12.164;2022-09-09T16:36:17;6.22;;;1.40;;
68247;SDS011;55064;49.636;12.164;2022-09-09T16:38:51;4.25;;;1.10;;
68247;SDS011;55064;49.636;12.164;2022-09-09T16:41:18;6.57;;;1.30;;
68247;SDS011;55064;49.636;12.164;2022-09-09T16:43:45;6.15;;;1.40;;
68247;SDS011;55064;49.636;12.164;2022-09-09T16:46:16;5.20;;;1.33;;
68247;SDS011;55064;49.636;12.164;2022-09-09T16:48:46;6.60;;;1.40;;
68247;SDS011;55064;49.636;12.164;2022-09-09T16:53:42;5.03;;;1.10;;
68247;SDS011;55064;49.636;12.164;2022-09-09T16:56:09;4.97;;;1.20;;
68247;SDS011;55064;49.636;12.164;2022-09-09T16:58:41;4.90;;;1.38;;
68247;SDS011;55064;49.636;12.164;2022-09-09T17:01:13;6.43;;;1.23;;
68247;SDS011;55064;49.636;12.164;2022-09-09T17:03:39;6.20;;;1.40;;
68247;SDS011;55064;49.636;12.164;2022-09-09T17:06:11;5.27;;;1.40;;
68247;SDS011;55064;49.636;12.164;2022-09-09T17:08:38;7.13;;;1.48;;
68247;SDS011;55064;49.636;12.164;2022-09-09T17:11:13;8.23;;;1.65;;
68247;SDS011;55064;49.636;12.164;2022-09-09T17:13:43;4.13;;;1.30;;
68247;SDS011;55064;49.636;12.164;2022-09-09T17:16:13;6.68;;;1.35;;
68247;SDS011;55064;49.636;12.164;2022-09-09T17:18:42;4.13;;;1.20;;
68247;SDS011;55064;49.636;12.164;2022-09-09T17:21:15;5.47;;;1.48;;
68247;SDS011;55064;49.636;12.164;2022-09-09T17:23:42;4.85;;;1.20;;
68247;SDS011;55064;49.636;12.164;2022-09-09T17:26:08;4.97;;;1.33;;
68247;SDS011;55064;49.636;12.164;2022-09-09T17:28:36;5.10;;;1.40;;
68247;SDS011;55064;49.636;12.164;2022-09-09T17:31:03;7.05;;;1.33;;
68247;SDS011;55064;49.636;12.164;2022-09-09T17:33:33;5.13;;;1.40;;
68247;SDS011;55064;49.636;12.164;2022-09-09T17:36:06;5.10;;;1.30;;
68247;SDS011;55064;49.636;12.164;2022-09-09T17:38:36;3.80;;;1.10;;
68247;SDS011;55064;49.636;12.164;2022-09-09T17:41:05;4.87;;;1.10;;
68247;SDS011;55064;49.636;12.164;2022-09-09T17:43:36;5.40;;;1.35;;